createdAt,value
2018-07-10T00:00:12.722Z,101583.39
2018-07-10T00:02:35.342Z,101589.77
2018-07-10T00:04:26.681Z,101586.66
2018-07-10T00:06:49.745Z,101582.17
2018-07-10T00:08:12.377Z,101575.28
2018-07-10T00:10:38.519Z,101573.08
2018-07-10T00:11:44.258Z,101565.45
2018-07-10T00:12:49.769Z,101568.70
2018-07-10T00:13:55.753Z,101569.48
2018-07-10T00:15:01.242Z,101570.64
2018-07-10T00:16:06.681Z,101572.53
2018-07-10T00:17:12.311Z,101568.11
2018-07-10T00:18:18.360Z,101560.37
2018-07-10T00:19:24.006Z,101564.00
2018-07-10T00:20:29.521Z,101567.12
2018-07-10T00:21:35.059Z,101564.16
2018-07-10T00:22:40.607Z,101558.41
2018-07-10T00:23:46.110Z,101562.36
2018-07-10T00:24:51.617Z,101561.40
2018-07-10T00:25:57.051Z,101556.63
2018-07-10T00:27:02.640Z,101557.96
2018-07-10T00:28:08.174Z,101556.20
2018-07-10T00:29:13.836Z,101557.19
2018-07-10T00:30:19.312Z,101557.83
2018-07-10T00:31:24.967Z,101551.38
2018-07-10T00:32:30.551Z,101551.02
2018-07-10T00:33:36.085Z,101542.67
2018-07-10T00:34:41.621Z,101543.72
2018-07-10T00:35:47.165Z,101544.09
2018-07-10T00:36:52.762Z,101540.12
2018-07-10T00:38:15.042Z,101531.04
2018-07-10T00:39:20.565Z,101538.34
2018-07-10T00:40:26.117Z,101534.41
2018-07-10T00:41:35.223Z,101539.63
2018-07-10T00:42:40.801Z,101535.33
2018-07-10T00:43:46.311Z,101529.00
2018-07-10T00:44:51.892Z,101531.58
2018-07-10T00:45:57.393Z,101532.00
2018-07-10T00:47:02.849Z,101532.28
2018-07-10T00:48:08.617Z,101527.50
2018-07-10T00:49:14.125Z,101526.06
2018-07-10T00:50:19.678Z,101528.98
2018-07-10T00:51:25.712Z,101524.13
2018-07-10T00:52:34.121Z,101526.17
2018-07-10T00:53:39.578Z,101521.00
2018-07-10T00:54:45.181Z,101524.47
2018-07-10T00:55:50.732Z,101520.76
2018-07-10T00:56:56.511Z,101522.05
2018-07-10T00:58:02.091Z,101519.39
2018-07-10T00:59:08.136Z,101524.56
2018-07-10T01:00:26.149Z,101524.23
2018-07-10T01:01:31.942Z,101520.39
2018-07-10T01:02:37.456Z,101516.93
2018-07-10T01:03:42.894Z,101519.39
2018-07-10T01:04:48.489Z,101521.50
2018-07-10T01:05:54.037Z,101518.17
2018-07-10T01:06:59.589Z,101519.61
2018-07-10T01:08:05.205Z,101512.66
2018-07-10T01:09:15.358Z,101509.47
2018-07-10T01:10:20.763Z,101501.34
2018-07-10T01:11:26.342Z,101505.59
2018-07-10T01:12:31.823Z,101497.97
2018-07-10T01:13:37.510Z,101497.25
2018-07-10T01:14:43.206Z,101491.80
2018-07-10T01:15:48.705Z,101478.94
2018-07-10T01:16:54.291Z,101483.73
2018-07-10T01:17:59.913Z,101480.56
2018-07-10T01:19:14.550Z,101480.47
2018-07-10T01:20:20.876Z,101477.09
2018-07-10T01:21:27.698Z,101483.05
2018-07-10T01:22:33.230Z,101487.63
2018-07-10T01:23:39.514Z,101479.06
2018-07-10T01:24:45.372Z,101479.38
2018-07-10T01:25:51.146Z,101484.22
2018-07-10T01:26:56.710Z,101487.63
2018-07-10T01:28:02.342Z,101488.17
2018-07-10T01:29:16.805Z,101494.83
2018-07-10T01:30:22.474Z,101495.55
2018-07-10T01:31:28.109Z,101492.80
2018-07-10T01:32:33.714Z,101490.22
2018-07-10T01:33:39.380Z,101495.36
2018-07-10T01:34:44.913Z,101490.36
2018-07-10T01:35:50.790Z,101484.78
2018-07-10T01:36:56.334Z,101491.11
2018-07-10T01:38:01.902Z,101489.70
2018-07-10T01:39:07.989Z,101486.91
2018-07-10T01:40:13.537Z,101482.55
2018-07-10T01:41:19.475Z,101493.08
2018-07-10T01:42:25.006Z,101487.87
2018-07-10T01:43:30.962Z,101488.45
2018-07-10T01:44:36.445Z,101483.63
2018-07-10T01:45:41.938Z,101490.00
2018-07-10T01:46:47.469Z,101487.20
2018-07-10T01:47:52.978Z,101489.20
2018-07-10T01:48:58.633Z,101495.03
2018-07-10T01:50:04.246Z,101497.28
2018-07-10T01:51:09.876Z,101492.28
2018-07-10T01:52:15.389Z,101491.33
2018-07-10T01:53:21.317Z,101486.03
2018-07-10T01:54:26.810Z,101484.49
2018-07-10T01:55:33.205Z,101479.61
2018-07-10T01:56:38.808Z,101478.73
2018-07-10T01:57:44.349Z,101478.11
2018-07-10T01:58:49.894Z,101475.39
2018-07-10T01:59:56.061Z,101474.56
2018-07-10T02:01:01.681Z,101473.27
2018-07-10T02:02:07.181Z,101467.98
2018-07-10T02:03:13.192Z,101471.39
2018-07-10T02:04:18.818Z,101463.51
2018-07-10T02:05:24.361Z,101471.67
2018-07-10T02:06:30.491Z,101462.17
2018-07-10T02:07:35.970Z,101457.51
2018-07-10T02:08:41.533Z,101465.06
2018-07-10T02:09:47.047Z,101466.36
2018-07-10T02:10:52.591Z,101462.81
2018-07-10T02:11:58.053Z,101467.05
2018-07-10T02:13:03.549Z,101467.64
2018-07-10T02:14:09.195Z,101467.94
2018-07-10T02:15:14.715Z,101466.86
2018-07-10T02:16:20.234Z,101463.31
2018-07-10T02:17:25.730Z,101463.73
2018-07-10T02:18:31.590Z,101461.89
2018-07-10T02:19:37.951Z,101459.21
2018-07-10T02:20:59.574Z,101453.17
2018-07-10T02:22:05.147Z,101455.26
2018-07-10T02:23:10.717Z,101448.66
2018-07-10T02:24:22.510Z,101452.20
2018-07-10T02:25:28.053Z,101447.92
2018-07-10T02:26:33.922Z,101446.72
2018-07-10T02:27:39.437Z,101443.25
2018-07-10T02:28:44.969Z,101440.81
2018-07-10T02:29:50.882Z,101443.02
2018-07-10T02:30:56.198Z,101438.59
2018-07-10T02:32:01.614Z,101441.50
2018-07-10T02:33:07.814Z,101439.33
2018-07-10T02:34:14.032Z,101432.37
2018-07-10T02:35:19.607Z,101433.92
2018-07-10T02:36:25.553Z,101429.11
2018-07-10T02:37:32.482Z,101427.65
2018-07-10T02:38:46.917Z,101427.61
2018-07-10T02:39:52.417Z,101428.34
2018-07-10T02:41:00.547Z,101429.19
2018-07-10T02:42:06.099Z,101429.64
2018-07-10T02:43:11.663Z,101431.22
2018-07-10T02:44:17.298Z,101427.75
2018-07-10T02:45:22.860Z,101426.36
2018-07-10T02:46:30.494Z,101431.45
2018-07-10T02:47:36.065Z,101430.16
2018-07-10T02:48:41.718Z,101433.06
2018-07-10T02:49:47.491Z,101427.20
2018-07-10T02:50:54.245Z,101422.90
2018-07-10T02:52:06.354Z,101425.02
2018-07-10T02:53:12.044Z,101427.92
2018-07-10T02:54:18.327Z,101429.16
2018-07-10T02:55:24.733Z,101427.00
2018-07-10T02:56:31.259Z,101427.74
2018-07-10T02:57:38.325Z,101427.74
2018-07-10T02:58:43.833Z,101429.11
2018-07-10T02:59:49.622Z,101417.13
2018-07-10T03:00:55.203Z,101418.52
2018-07-10T03:02:00.749Z,101421.09
2018-07-10T03:03:06.401Z,101427.96
2018-07-10T03:04:11.966Z,101419.47
2018-07-10T03:05:17.798Z,101418.04
2018-07-10T03:06:23.335Z,101416.63
2018-07-10T03:07:31.244Z,101411.62
2018-07-10T03:08:37.409Z,101417.53
2018-07-10T03:09:43.181Z,101412.66
2018-07-10T03:10:48.885Z,101404.06
2018-07-10T03:11:54.518Z,101409.05
2018-07-10T03:13:00.689Z,101406.00
2018-07-10T03:14:09.672Z,101415.79
2018-07-10T03:15:15.690Z,101417.37
2018-07-10T03:16:21.262Z,101412.70
2018-07-10T03:17:26.949Z,101412.66
2018-07-10T03:18:33.478Z,101414.83
2018-07-10T03:19:39.711Z,101410.16
2018-07-10T03:20:46.117Z,101409.42
2018-07-10T03:21:51.594Z,101414.59
2018-07-10T03:22:57.147Z,101411.39
2018-07-10T03:24:02.706Z,101411.44
2018-07-10T03:25:09.472Z,101412.08
2018-07-10T03:26:14.970Z,101418.62
2018-07-10T03:27:20.597Z,101414.20
2018-07-10T03:28:26.285Z,101405.57
2018-07-10T03:29:31.834Z,101404.69
2018-07-10T03:30:37.366Z,101405.61
2018-07-10T03:31:42.982Z,101402.16
2018-07-10T03:32:48.490Z,101405.57
2018-07-10T03:33:54.244Z,101403.69
2018-07-10T03:34:59.829Z,101403.83
2018-07-10T03:36:05.610Z,101400.81
2018-07-10T03:37:11.206Z,101397.73
2018-07-10T03:38:16.707Z,101393.73
2018-07-10T03:39:22.349Z,101402.77
2018-07-10T03:40:30.085Z,101400.98
2018-07-10T03:41:35.756Z,101399.07
2018-07-10T03:42:41.692Z,101393.36
2018-07-10T03:43:47.296Z,101393.81
2018-07-10T03:44:53.265Z,101391.16
2018-07-10T03:45:59.074Z,101395.02
2018-07-10T03:47:04.788Z,101392.81
2018-07-10T03:48:10.293Z,101390.56
2018-07-10T03:49:15.831Z,101390.80
2018-07-10T03:50:22.202Z,101390.73
2018-07-10T03:51:28.174Z,101382.77
2018-07-10T03:52:36.097Z,101386.59
2018-07-10T03:53:41.693Z,101379.58
2018-07-10T03:54:47.451Z,101386.18
2018-07-10T03:55:53.037Z,101381.14
2018-07-10T03:56:58.596Z,101376.62
2018-07-10T03:59:14.795Z,101377.26
2018-07-10T04:00:20.436Z,101380.20
2018-07-10T04:01:31.456Z,101376.69
2018-07-10T04:02:46.097Z,101371.26
2018-07-10T04:03:51.601Z,101366.51
2018-07-10T04:04:57.171Z,101369.01
2018-07-10T04:06:03.546Z,101370.16
2018-07-10T04:07:09.133Z,101368.32
2018-07-10T04:08:15.944Z,101371.64
2018-07-10T04:09:21.482Z,101369.39
2018-07-10T04:10:33.737Z,101372.66
2018-07-10T04:11:47.745Z,101375.16
2018-07-10T04:12:53.264Z,101378.06
2018-07-10T04:13:59.443Z,101380.14
2018-07-10T04:15:06.291Z,101378.02
2018-07-10T04:16:12.193Z,101381.89
2018-07-10T04:17:17.947Z,101381.25
2018-07-10T04:18:26.557Z,101380.41
2018-07-10T04:19:32.483Z,101379.86
2018-07-10T04:20:57.698Z,101379.77
2018-07-10T04:22:04.186Z,101378.43
2018-07-10T04:23:09.710Z,101382.91
2018-07-10T04:24:19.318Z,101376.91
2018-07-10T04:25:33.571Z,101372.21
2018-07-10T04:26:43.539Z,101373.31
2018-07-10T04:28:05.714Z,101371.97
2018-07-10T04:29:30.602Z,101377.59
2018-07-10T04:30:46.958Z,101371.78
2018-07-10T04:31:58.481Z,101374.83
2018-07-10T04:33:04.077Z,101368.92
2018-07-10T04:34:09.665Z,101371.28
2018-07-10T04:35:19.711Z,101372.23
2018-07-10T04:36:25.479Z,101367.91
2018-07-10T04:37:31.054Z,101368.32
2018-07-10T04:38:37.035Z,101366.57
2018-07-10T04:39:44.614Z,101363.06
2018-07-10T04:40:50.327Z,101371.83
2018-07-10T04:42:07.106Z,101365.88
2018-07-10T04:43:18.878Z,101370.32
2018-07-10T04:44:32.237Z,101366.67
2018-07-10T04:45:45.425Z,101366.13
2018-07-10T04:46:57.946Z,101358.59
2018-07-10T04:48:03.580Z,101364.50
2018-07-10T04:49:24.502Z,101363.44
2018-07-10T04:50:39.672Z,101364.64
2018-07-10T04:51:53.997Z,101364.78
2018-07-10T04:53:34.973Z,101360.30
2018-07-10T04:54:53.597Z,101357.72
2018-07-10T04:55:59.426Z,101366.86
2018-07-10T04:57:16.805Z,101357.27
2018-07-10T04:58:23.140Z,101360.16
2018-07-10T04:59:28.689Z,101362.79
2018-07-10T05:00:37.689Z,101363.91
2018-07-10T05:01:43.555Z,101360.76
2018-07-10T05:02:50.347Z,101361.17
2018-07-10T05:03:55.957Z,101358.59
2018-07-10T05:05:01.795Z,101362.19
2018-07-10T05:06:09.222Z,101357.90
2018-07-10T05:07:14.826Z,101352.23
2018-07-10T05:08:21.865Z,101351.17
2018-07-10T05:09:27.486Z,101356.48
2018-07-10T05:10:34.109Z,101355.23
2018-07-10T05:11:43.596Z,101353.42
2018-07-10T05:12:49.102Z,101349.86
2018-07-10T05:13:55.226Z,101349.12
2018-07-10T05:15:00.800Z,101344.24
2018-07-10T05:16:07.170Z,101346.20
2018-07-10T05:17:14.761Z,101344.49
2018-07-10T05:18:20.317Z,101344.08
2018-07-10T05:19:25.898Z,101346.20
2018-07-10T05:20:31.464Z,101336.84
2018-07-10T05:21:37.546Z,101341.47
2018-07-10T05:22:43.112Z,101340.86
2018-07-10T05:23:49.361Z,101340.61
2018-07-10T05:24:55.149Z,101336.70
2018-07-10T05:26:01.226Z,101339.66
2018-07-10T05:27:06.777Z,101331.73
2018-07-10T05:28:12.461Z,101329.48
2018-07-10T05:29:18.093Z,101327.82
2018-07-10T05:30:23.701Z,101334.15
2018-07-10T05:31:29.298Z,101329.41
2018-07-10T05:32:34.855Z,101329.86
2018-07-10T05:33:47.161Z,101332.28
2018-07-10T05:34:52.682Z,101338.61
2018-07-10T05:35:58.658Z,101333.77
2018-07-10T05:37:04.411Z,101334.27
2018-07-10T05:38:09.953Z,101326.16
2018-07-10T05:39:15.574Z,101330.12
2018-07-10T05:40:36.216Z,101333.33
2018-07-10T05:41:48.067Z,101332.91
2018-07-10T05:42:53.606Z,101331.58
2018-07-10T05:43:59.153Z,101323.39
2018-07-10T05:45:05.295Z,101324.72
2018-07-10T05:46:10.889Z,101320.35
2018-07-10T05:47:16.509Z,101318.14
2018-07-10T05:48:22.654Z,101315.44
2018-07-10T05:49:28.242Z,101317.52
2018-07-10T05:50:38.331Z,101315.23
2018-07-10T05:51:51.185Z,101315.98
2018-07-10T05:52:56.681Z,101315.89
2018-07-10T05:54:06.173Z,101311.98
2018-07-10T05:55:12.314Z,101304.63
2018-07-10T05:56:17.997Z,101311.44
2018-07-10T05:57:23.558Z,101304.70
2018-07-10T05:58:29.111Z,101302.16
2018-07-10T05:59:35.277Z,101307.50
2018-07-10T06:00:40.952Z,101302.66
2018-07-10T06:01:46.490Z,101302.20
2018-07-10T06:02:52.394Z,101298.92
2018-07-10T06:03:58.239Z,101296.14
2018-07-10T06:05:04.250Z,101293.97
2018-07-10T06:06:09.926Z,101289.73
2018-07-10T06:07:15.490Z,101287.03
2018-07-10T06:08:20.973Z,101291.81
2018-07-10T06:09:26.469Z,101291.03
2018-07-10T06:10:32.120Z,101281.13
2018-07-10T06:11:38.099Z,101279.29
2018-07-10T06:12:43.704Z,101282.95
2018-07-10T06:13:49.259Z,101282.23
2018-07-10T06:14:56.489Z,101280.11
2018-07-10T06:16:02.271Z,101283.34
2018-07-10T06:17:07.810Z,101283.44
2018-07-10T06:18:13.365Z,101285.55
2018-07-10T06:19:18.961Z,101285.33
2018-07-10T06:20:25.870Z,101276.26
2018-07-10T06:21:43.187Z,101275.39
2018-07-10T06:22:49.280Z,101267.52
2018-07-10T06:23:54.829Z,101275.84
2018-07-10T06:25:04.772Z,101281.42
2018-07-10T06:26:11.097Z,101277.50
2018-07-10T06:27:19.861Z,101276.69
2018-07-10T06:28:30.254Z,101281.05
2018-07-10T06:30:00.951Z,101272.77
2018-07-10T06:31:13.029Z,101272.81
2018-07-10T06:32:22.071Z,101272.94
2018-07-10T06:33:28.203Z,101269.40
2018-07-10T06:34:39.486Z,101270.59
2018-07-10T06:35:53.661Z,101265.48
2018-07-10T06:37:05.581Z,101266.98
2018-07-10T06:38:15.408Z,101265.83
2018-07-10T06:39:21.282Z,101264.09
2018-07-10T06:40:27.204Z,101264.00
2018-07-10T06:41:32.811Z,101259.75
2018-07-10T06:43:50.346Z,101266.98
2018-07-10T06:44:55.907Z,101257.26
2018-07-10T06:46:01.555Z,101252.19
2018-07-10T06:47:42.902Z,101256.80
2018-07-10T06:48:53.935Z,101253.94
2018-07-10T06:50:01.089Z,101239.70
2018-07-10T06:51:14.479Z,101243.62
2018-07-10T06:52:21.782Z,101241.41
2018-07-10T06:53:27.486Z,101240.45
2018-07-10T06:54:57.022Z,101239.58
2018-07-10T06:56:06.480Z,101245.05
2018-07-10T06:57:12.521Z,101237.93
2018-07-10T06:58:18.049Z,101235.67
2018-07-10T06:59:23.798Z,101234.25
2018-07-10T07:00:29.640Z,101233.27
2018-07-10T07:01:35.217Z,101233.55
2018-07-10T07:02:41.564Z,101236.47
2018-07-10T07:03:47.175Z,101234.28
2018-07-10T07:04:52.731Z,101231.47
2018-07-10T07:05:58.758Z,101224.56
2018-07-10T07:07:04.315Z,101225.77
2018-07-10T07:08:09.912Z,101228.72
2018-07-10T07:09:15.514Z,101224.38
2018-07-10T07:10:21.523Z,101223.18
2018-07-10T07:11:27.654Z,101226.41
2018-07-10T07:12:34.166Z,101223.63
2018-07-10T07:13:39.713Z,101220.36
2018-07-10T07:14:45.473Z,101218.23
2018-07-10T07:15:51.209Z,101219.39
2018-07-10T07:16:56.783Z,101216.31
2018-07-10T07:18:02.304Z,101214.97
2018-07-10T07:19:07.797Z,101214.36
2018-07-10T07:20:13.329Z,101212.75
2018-07-10T07:21:18.926Z,101215.50
2018-07-10T07:22:24.448Z,101212.56
2018-07-10T07:23:29.976Z,101212.92
2018-07-10T07:24:35.609Z,101211.45
2018-07-10T07:25:41.231Z,101209.86
2018-07-10T07:26:46.773Z,101211.14
2018-07-10T07:27:52.273Z,101207.45
2018-07-10T07:28:57.809Z,101205.75
2018-07-10T07:30:03.317Z,101202.06
2018-07-10T07:31:08.884Z,101197.88
2018-07-10T07:32:14.510Z,101204.55
2018-07-10T07:33:20.200Z,101198.30
2018-07-10T07:34:25.753Z,101199.59
2018-07-10T07:35:31.240Z,101195.52
2018-07-10T07:36:36.785Z,101197.63
2018-07-10T07:37:42.669Z,101204.83
2018-07-10T07:38:48.227Z,101208.23
2018-07-10T07:39:55.057Z,101200.27
2018-07-10T07:41:00.778Z,101202.29
2018-07-10T07:42:06.547Z,101203.40
2018-07-10T07:43:12.303Z,101194.77
2018-07-10T07:44:17.871Z,101191.17
2018-07-10T07:45:23.949Z,101183.19
2018-07-10T07:46:29.643Z,101176.54
2018-07-10T07:47:35.614Z,101174.52
2018-07-10T07:48:41.338Z,101168.74
2018-07-10T07:49:51.005Z,101169.47
2018-07-10T07:51:00.361Z,101162.91
2018-07-10T07:52:06.562Z,101160.33
2018-07-10T07:53:16.025Z,101155.25
2018-07-10T07:54:22.106Z,101159.95
2018-07-10T07:55:27.771Z,101159.95
2018-07-10T07:56:33.270Z,101153.97
2018-07-10T07:57:39.250Z,101162.28
2018-07-10T07:58:44.930Z,101165.03
2018-07-10T07:59:50.450Z,101168.13
2018-07-10T08:00:56.133Z,101165.03
2018-07-10T08:02:01.619Z,101161.77
2018-07-10T08:03:07.130Z,101161.15
2018-07-10T08:04:12.991Z,101167.09
2018-07-10T08:05:18.978Z,101155.47
2018-07-10T08:06:24.534Z,101166.47
2018-07-10T08:07:30.158Z,101168.55
2018-07-10T08:08:36.131Z,101169.31
2018-07-10T08:09:42.078Z,101169.78
2018-07-10T08:10:47.693Z,101162.34
2018-07-10T08:11:53.210Z,101168.28
2018-07-10T08:12:58.754Z,101159.97
2018-07-10T08:14:04.837Z,101159.13
2018-07-10T08:15:11.355Z,101155.66
2018-07-10T08:16:17.097Z,101149.06
2018-07-10T08:17:24.794Z,101154.53
2018-07-10T08:18:30.339Z,101155.81
2018-07-10T08:19:36.475Z,101158.66
2018-07-10T08:20:42.049Z,101159.70
2018-07-10T08:21:50.560Z,101160.94
2018-07-10T08:22:56.117Z,101159.55
2018-07-10T08:24:01.920Z,101159.64
2018-07-10T08:25:08.116Z,101152.56
2018-07-10T08:26:13.693Z,101157.68
2018-07-10T08:27:19.250Z,101160.21
2018-07-10T08:28:24.823Z,101152.22
2018-07-10T08:29:30.673Z,101150.92
2018-07-10T08:30:36.226Z,101145.75
2018-07-10T08:31:44.493Z,101153.45
2018-07-10T08:32:52.509Z,101148.42
2018-07-10T08:33:58.213Z,101149.01
2018-07-10T08:35:03.797Z,101152.72
2018-07-10T08:36:09.434Z,101155.10
2018-07-10T08:37:15.047Z,101148.99
2018-07-10T08:38:42.155Z,101145.17
2018-07-10T08:39:47.697Z,101138.70
2018-07-10T08:40:53.787Z,101138.30
2018-07-10T08:41:59.301Z,101142.23
2018-07-10T08:43:04.790Z,101139.94
2018-07-10T08:44:10.229Z,101137.78
2018-07-10T08:45:15.813Z,101144.28
2018-07-10T08:46:29.105Z,101141.09
2018-07-10T08:47:35.594Z,101141.19
2018-07-10T08:48:41.556Z,101137.62
2018-07-10T08:49:47.344Z,101134.80
2018-07-10T08:50:52.892Z,101136.81
2018-07-10T08:51:58.566Z,101137.44
2018-07-10T08:53:04.160Z,101131.77
2018-07-10T08:54:09.868Z,101132.98
2018-07-10T08:55:15.395Z,101136.22
2018-07-10T08:56:20.950Z,101132.66
2018-07-10T08:57:26.666Z,101125.62
2018-07-10T08:58:32.552Z,101129.17
2018-07-10T08:59:39.378Z,101123.86
2018-07-10T09:00:44.980Z,101129.75
2018-07-10T09:01:51.160Z,101126.13
2018-07-10T09:02:56.712Z,101124.24
2018-07-10T09:04:02.258Z,101114.42
2018-07-10T09:05:07.855Z,101116.13
2018-07-10T09:06:13.429Z,101117.55
2018-07-10T09:07:18.994Z,101111.75
2018-07-10T09:08:24.693Z,101109.73
2018-07-10T09:09:29.842Z,101110.61
2018-07-10T09:10:35.445Z,101109.23
2018-07-10T09:11:41.729Z,101111.91
2018-07-10T09:12:47.193Z,101106.08
2018-07-10T09:13:52.937Z,101110.39
2018-07-10T09:14:58.551Z,101113.18
2018-07-10T09:16:04.094Z,101110.68
2018-07-10T09:17:09.662Z,101109.23
2018-07-10T09:18:15.225Z,101106.64
2018-07-10T09:19:26.199Z,101112.20
2018-07-10T09:20:42.105Z,101109.55
2018-07-10T09:21:58.545Z,101111.36
2018-07-10T09:23:04.269Z,101110.26
2018-07-10T09:24:09.821Z,101111.65
2018-07-10T09:25:15.533Z,101106.09
2018-07-10T09:26:21.146Z,101110.66
2018-07-10T09:27:26.766Z,101107.92
2018-07-10T09:28:38.361Z,101106.92
2018-07-10T09:29:43.940Z,101109.22
2018-07-10T09:30:49.510Z,101108.69
2018-07-10T09:31:55.081Z,101112.34
2018-07-10T09:33:00.652Z,101109.91
2018-07-10T09:34:06.261Z,101106.39
2018-07-10T09:35:11.915Z,101109.31
2018-07-10T09:36:17.817Z,101105.63
2018-07-10T09:37:28.719Z,101107.92
2018-07-10T09:38:36.254Z,101100.54
2018-07-10T09:39:41.817Z,101097.64
2018-07-10T09:40:47.367Z,101105.83
2018-07-10T09:41:52.905Z,101099.14
2018-07-10T09:43:04.162Z,101099.40
2018-07-10T09:44:10.215Z,101102.50
2018-07-10T09:45:16.463Z,101097.19
2018-07-10T09:46:22.023Z,101097.56
2018-07-10T09:47:27.572Z,101103.36
2018-07-10T09:48:33.112Z,101094.63
2018-07-10T09:49:38.818Z,101100.43
2018-07-10T09:50:44.317Z,101094.06
2018-07-10T09:51:49.868Z,101091.98
2018-07-10T09:52:55.426Z,101096.33
2018-07-10T09:54:00.951Z,101087.05
2018-07-10T09:55:06.533Z,101095.33
2018-07-10T09:56:12.058Z,101092.08
2018-07-10T09:57:17.635Z,101088.98
2018-07-10T09:58:23.690Z,101091.19
2018-07-10T09:59:29.290Z,101091.81
2018-07-10T10:00:40.567Z,101089.86
2018-07-10T10:01:46.367Z,101086.69
2018-07-10T10:02:51.994Z,101093.52
2018-07-10T10:03:57.694Z,101089.97
2018-07-10T10:05:04.885Z,101092.00
2018-07-10T10:06:10.045Z,101082.16
2018-07-10T10:07:15.461Z,101084.42
2018-07-10T10:08:20.985Z,101081.57
2018-07-10T10:09:26.581Z,101082.33
2018-07-10T10:10:32.121Z,101078.80
2018-07-10T10:11:37.762Z,101081.02
2018-07-10T10:12:43.331Z,101070.30
2018-07-10T10:13:49.272Z,101070.57
2018-07-10T10:14:54.853Z,101073.74
2018-07-10T10:16:00.514Z,101077.27
2018-07-10T10:17:06.045Z,101067.32
2018-07-10T10:18:11.241Z,101066.95
2018-07-10T10:19:17.313Z,101064.09
2018-07-10T10:20:22.842Z,101071.27
2018-07-10T10:21:30.145Z,101074.30
2018-07-10T10:22:37.214Z,101077.28
2018-07-10T10:23:43.103Z,101082.69
2018-07-10T10:24:49.305Z,101071.18
2018-07-10T10:25:54.990Z,101073.04
2018-07-10T10:27:00.710Z,101080.73
2018-07-10T10:28:08.644Z,101074.45
2018-07-10T10:29:14.200Z,101071.77
2018-07-10T10:30:19.734Z,101073.52
2018-07-10T10:31:25.293Z,101073.05
2018-07-10T10:32:31.138Z,101069.45
2018-07-10T10:33:36.867Z,101066.95
2018-07-10T10:34:42.418Z,101062.20
2018-07-10T10:35:47.961Z,101064.52
2018-07-10T10:36:53.866Z,101062.66
2018-07-10T10:38:01.573Z,101059.90
2018-07-10T10:39:07.190Z,101057.70
2018-07-10T10:40:13.574Z,101047.95
2018-07-10T10:41:19.053Z,101047.47
2018-07-10T10:42:25.246Z,101049.64
2018-07-10T10:43:30.849Z,101050.69
2018-07-10T10:44:36.498Z,101045.81
2018-07-10T10:45:44.945Z,101046.64
2018-07-10T10:46:51.942Z,101049.33
2018-07-10T10:47:57.493Z,101041.80
2018-07-10T10:49:03.117Z,101041.88
2018-07-10T10:50:08.697Z,101042.12
2018-07-10T10:51:14.325Z,101042.03
2018-07-10T10:52:19.918Z,101041.68
2018-07-10T10:53:25.430Z,101032.09
2018-07-10T10:54:31.440Z,101032.26
2018-07-10T10:55:37.375Z,101037.52
2018-07-10T10:56:43.073Z,101028.18
2018-07-10T10:57:48.603Z,101031.14
2018-07-10T10:58:54.852Z,101029.94
2018-07-10T11:00:00.377Z,101041.10
2018-07-10T11:01:05.932Z,101030.70
2018-07-10T11:02:11.522Z,101031.43
2018-07-10T11:03:17.062Z,101029.84
2018-07-10T11:04:22.666Z,101031.66
2018-07-10T11:05:29.975Z,101035.72
2018-07-10T11:06:35.289Z,101036.14
2018-07-10T11:07:40.742Z,101033.05
2018-07-10T11:08:46.302Z,101041.64
2018-07-10T11:09:51.845Z,101031.66
2018-07-10T11:10:57.410Z,101033.08
2018-07-10T11:12:03.012Z,101039.48
2018-07-10T11:13:08.599Z,101037.95
2018-07-10T11:14:14.837Z,101037.92
2018-07-10T11:15:21.085Z,101038.88
2018-07-10T11:16:26.711Z,101034.04
2018-07-10T11:17:39.190Z,101037.12
2018-07-10T11:19:03.082Z,101042.50
2018-07-10T11:20:34.550Z,101037.76
2018-07-10T11:23:03.725Z,101039.89
2018-07-10T11:24:09.308Z,101038.70
2018-07-10T11:25:15.235Z,101040.59
2018-07-10T11:26:40.701Z,101035.95
2018-07-10T11:28:05.654Z,101041.80
2018-07-10T11:29:11.462Z,101051.13
2018-07-10T11:30:17.010Z,101034.53
2018-07-10T11:31:22.538Z,101046.45
2018-07-10T11:32:28.097Z,101045.73
2018-07-10T11:33:33.670Z,101043.43
2018-07-10T11:34:39.642Z,101041.65
2018-07-10T11:35:45.191Z,101049.02
2018-07-10T11:36:50.739Z,101054.34
2018-07-10T11:37:58.314Z,101049.91
2018-07-10T11:39:08.707Z,101050.14
2018-07-10T11:40:15.218Z,101048.96
2018-07-10T11:41:20.749Z,101050.08
2018-07-10T11:42:26.325Z,101048.72
2018-07-10T11:43:31.988Z,101046.23
2018-07-10T11:44:37.496Z,101033.23
2018-07-10T11:45:43.438Z,101038.36
2018-07-10T11:46:49.654Z,101042.22
2018-07-10T11:47:55.247Z,101036.53
2018-07-10T11:49:00.765Z,101034.19
2018-07-10T11:50:06.279Z,101041.06
2018-07-10T11:51:11.887Z,101033.37
2018-07-10T11:52:17.442Z,101033.94
2018-07-10T11:53:23.045Z,101035.65
2018-07-10T11:54:28.554Z,101030.63
2018-07-10T11:55:34.698Z,101034.10
2018-07-10T11:56:40.325Z,101036.30
2018-07-10T11:57:45.881Z,101035.69
2018-07-10T11:58:51.931Z,101037.63
2018-07-10T11:59:57.934Z,101035.66
2018-07-10T12:01:03.743Z,101025.83
2018-07-10T12:02:09.290Z,101033.19
2018-07-10T12:03:14.813Z,101033.13
2018-07-10T12:04:20.511Z,101029.64
2018-07-10T12:05:26.286Z,101031.59
2018-07-10T12:06:32.485Z,101026.53
2018-07-10T12:07:38.941Z,101025.50
2018-07-10T12:08:54.612Z,101028.64
2018-07-10T12:10:17.665Z,101018.69
2018-07-10T12:11:24.986Z,101020.52
2018-07-10T12:12:30.525Z,101025.92
2018-07-10T12:13:36.068Z,101024.20
2018-07-10T12:14:41.653Z,101032.08
2018-07-10T12:15:47.274Z,101020.55
2018-07-10T12:16:53.321Z,101022.03
2018-07-10T12:17:59.690Z,101027.84
2018-07-10T12:19:05.830Z,101029.68
2018-07-10T12:20:13.404Z,101032.83
2018-07-10T12:21:20.166Z,101022.23
2018-07-10T12:22:25.686Z,101023.30
2018-07-10T12:23:32.362Z,101020.45
2018-07-10T12:24:38.106Z,101014.25
2018-07-10T12:25:44.999Z,101016.23
2018-07-10T12:26:50.525Z,101023.11
2018-07-10T12:27:56.075Z,101023.48
2018-07-10T12:29:02.040Z,101024.31
2018-07-10T12:30:09.307Z,101023.05
2018-07-10T12:31:15.129Z,101018.94
2018-07-10T12:32:21.103Z,101023.78
2018-07-10T12:33:26.788Z,101022.22
2018-07-10T12:34:32.324Z,101031.27
2018-07-10T12:35:37.874Z,101026.05
2018-07-10T12:36:43.446Z,101031.46
2018-07-10T12:37:48.998Z,101035.76
2018-07-10T12:38:54.567Z,101036.97
2018-07-10T12:40:00.122Z,101031.84
2018-07-10T12:41:05.662Z,101030.60
2018-07-10T12:42:11.229Z,101026.66
2018-07-10T12:43:16.768Z,101027.23
2018-07-10T12:44:22.269Z,101023.41
2018-07-10T12:45:27.894Z,101030.53
2018-07-10T12:46:33.556Z,101024.89
2018-07-10T12:47:39.179Z,101020.72
2018-07-10T12:48:45.001Z,101025.66
2018-07-10T12:49:50.561Z,101028.41
2018-07-10T12:50:56.128Z,101024.78
2018-07-10T12:52:01.934Z,101016.86